createdAt,value
2022-08-24T00:00:21.611Z,24.90
2022-08-24T00:02:50.410Z,24.90
2022-08-24T00:05:21.783Z,24.90
2022-08-24T00:07:50.334Z,24.80
2022-08-24T00:10:19.088Z,24.80
2022-08-24T00:12:47.242Z,24.80
2022-08-24T00:15:16.656Z,24.80
2022-08-24T00:17:45.763Z,24.80
2022-08-24T00:20:15.234Z,24.70
2022-08-24T00:22:44.742Z,24.70
2022-08-24T00:25:13.843Z,24.60
2022-08-24T00:27:43.069Z,24.50
2022-08-24T00:30:15.848Z,24.50
2022-08-24T00:32:44.188Z,24.40
2022-08-24T00:35:13.103Z,24.40
2022-08-24T00:37:41.925Z,24.40
2022-08-24T00:40:17.079Z,24.40
2022-08-24T00:42:45.109Z,24.40
2022-08-24T00:45:16.284Z,24.40
2022-08-24T00:47:48.639Z,24.40
2022-08-24T00:50:23.181Z,24.30
2022-08-24T00:52:53.895Z,24.20
2022-08-24T00:55:28.318Z,24.20
2022-08-24T00:58:00.090Z,24.20
2022-08-24T01:00:33.090Z,24.20
2022-08-24T01:03:04.893Z,24.10
2022-08-24T01:05:34.297Z,24.10
2022-08-24T01:08:04.072Z,24.10
2022-08-24T01:10:37.834Z,24.00
2022-08-24T01:13:09.466Z,24.00
2022-08-24T01:15:40.500Z,24.10
2022-08-24T01:18:30.480Z,24.10
2022-08-24T01:21:02.673Z,24.00
2022-08-24T01:23:40.403Z,23.90
2022-08-24T01:26:11.184Z,23.90
2022-08-24T01:28:43.428Z,23.80
2022-08-24T01:31:11.601Z,23.70
2022-08-24T01:33:39.656Z,23.70
2022-08-24T01:36:15.879Z,23.70
2022-08-24T01:38:46.412Z,23.70
2022-08-24T01:41:14.348Z,23.70
2022-08-24T01:43:42.525Z,23.70
2022-08-24T01:46:10.558Z,23.60
2022-08-24T01:48:38.671Z,23.70
2022-08-24T01:51:06.943Z,23.70
2022-08-24T01:53:34.977Z,23.70
2022-08-24T01:56:06.048Z,23.70
2022-08-24T01:58:34.070Z,23.60
2022-08-24T02:01:02.332Z,23.60
2022-08-24T02:03:31.068Z,23.60
2022-08-24T02:05:59.503Z,23.60
2022-08-24T02:08:27.607Z,23.50
2022-08-24T02:10:57.013Z,23.50
2022-08-24T02:13:27.028Z,23.40
2022-08-24T02:15:55.243Z,23.40
2022-08-24T02:18:23.229Z,23.30
2022-08-24T02:20:51.513Z,23.30
2022-08-24T02:23:20.456Z,23.30
2022-08-24T02:25:48.712Z,23.30
2022-08-24T02:28:16.597Z,23.30
2022-08-24T02:30:45.959Z,23.20
2022-08-24T02:33:14.665Z,23.20
2022-08-24T02:35:42.701Z,23.10
2022-08-24T02:38:10.882Z,23.00
2022-08-24T02:40:39.443Z,23.00
2022-08-24T02:43:07.558Z,23.00
2022-08-24T02:45:40.405Z,22.90
2022-08-24T02:48:10.484Z,22.90
2022-08-24T02:50:40.602Z,22.90
2022-08-24T02:53:08.600Z,22.90
2022-08-24T02:55:39.220Z,22.90
2022-08-24T02:58:07.605Z,22.90
2022-08-24T03:00:38.416Z,22.90
2022-08-24T03:03:07.654Z,22.90
2022-08-24T03:05:37.405Z,22.90
2022-08-24T03:08:06.246Z,22.90
2022-08-24T03:10:34.370Z,22.90
2022-08-24T03:13:02.995Z,22.90
2022-08-24T03:15:31.224Z,22.80
2022-08-24T03:17:59.270Z,22.80
2022-08-24T03:20:27.238Z,22.80
2022-08-24T03:22:56.722Z,22.80
2022-08-24T03:25:26.535Z,22.80
2022-08-24T03:27:54.668Z,22.80
2022-08-24T03:30:24.150Z,22.70
2022-08-24T03:32:52.827Z,22.70
2022-08-24T03:35:22.465Z,22.70
2022-08-24T03:37:50.759Z,22.60
2022-08-24T03:40:24.344Z,22.60
2022-08-24T03:42:53.759Z,22.50
2022-08-24T03:45:22.777Z,22.50
2022-08-24T03:47:50.800Z,22.40
2022-08-24T03:50:19.175Z,22.30
2022-08-24T03:52:47.407Z,22.30
2022-08-24T03:55:15.378Z,22.30
2022-08-24T03:57:45.176Z,22.20
2022-08-24T04:00:14.797Z,22.20
2022-08-24T04:02:44.231Z,22.10
2022-08-24T04:05:13.311Z,22.10
2022-08-24T04:07:41.318Z,22.00
2022-08-24T04:10:11.280Z,22.00
2022-08-24T04:12:39.228Z,22.00
2022-08-24T04:15:10.044Z,22.00
2022-08-24T04:17:38.011Z,22.10
2022-08-24T04:20:07.574Z,22.20
2022-08-24T04:22:36.338Z,22.20
2022-08-24T04:25:09.005Z,22.30
2022-08-24T04:27:38.076Z,22.30
2022-08-24T04:30:08.618Z,22.40
2022-08-24T04:32:36.590Z,22.40
2022-08-24T04:35:06.260Z,22.40
2022-08-24T04:37:34.220Z,22.40
2022-08-24T04:40:03.315Z,22.40
2022-08-24T04:42:33.479Z,22.50
2022-08-24T04:45:01.607Z,22.50
2022-08-24T04:47:30.941Z,22.50
2022-08-24T04:49:58.878Z,22.50
2022-08-24T04:52:26.847Z,22.50
2022-08-24T04:54:55.003Z,22.50
2022-08-24T04:57:22.956Z,22.50
2022-08-24T04:59:50.887Z,22.50
2022-08-24T05:02:21.050Z,22.50
2022-08-24T05:04:50.476Z,22.50
2022-08-24T05:07:18.731Z,22.50
2022-08-24T05:09:47.179Z,22.60
2022-08-24T05:12:15.159Z,22.50
2022-08-24T05:14:43.091Z,22.50
2022-08-24T05:17:11.027Z,22.50
2022-08-24T05:19:39.058Z,22.50
2022-08-24T05:22:08.392Z,22.50
2022-08-24T05:24:36.358Z,22.60
2022-08-24T05:27:04.803Z,22.60
2022-08-24T05:29:34.692Z,22.60
2022-08-24T05:32:03.079Z,22.60
2022-08-24T05:34:36.405Z,22.60
2022-08-24T05:37:04.749Z,22.70
2022-08-24T05:39:34.055Z,22.70
2022-08-24T05:42:02.033Z,22.70
2022-08-24T05:44:31.468Z,22.70
2022-08-24T05:47:01.064Z,22.80
2022-08-24T05:49:29.791Z,22.80
2022-08-24T05:51:57.789Z,22.80
2022-08-24T05:54:25.703Z,22.80
2022-08-24T05:56:55.450Z,22.90
2022-08-24T05:59:23.386Z,22.90
2022-08-24T06:01:51.645Z,22.90
2022-08-24T06:04:19.974Z,22.90
2022-08-24T06:06:48.638Z,23.00
2022-08-24T06:09:17.315Z,23.00
2022-08-24T06:11:46.827Z,23.00
2022-08-24T06:14:21.909Z,23.00
2022-08-24T06:16:53.546Z,23.00
2022-08-24T06:19:21.944Z,23.00
2022-08-24T06:21:53.556Z,23.10
2022-08-24T06:24:43.436Z,23.10
2022-08-24T06:27:22.295Z,23.10
2022-08-24T06:29:53.740Z,23.10
2022-08-24T06:32:22.522Z,23.20
2022-08-24T06:34:52.590Z,23.20
2022-08-24T06:37:20.686Z,23.20
2022-08-24T06:39:49.024Z,23.20
2022-08-24T06:42:24.527Z,23.10
2022-08-24T06:44:53.995Z,23.20
2022-08-24T06:47:22.610Z,23.20
2022-08-24T06:49:50.651Z,23.20
2022-08-24T06:52:18.822Z,23.20
2022-08-24T06:54:46.796Z,23.30
2022-08-24T06:57:14.767Z,23.30
2022-08-24T06:59:43.080Z,23.30
2022-08-24T07:02:15.732Z,23.30
2022-08-24T07:04:43.724Z,23.40
2022-08-24T07:07:11.765Z,23.40
2022-08-24T07:09:40.327Z,23.40
2022-08-24T07:12:11.185Z,23.40
2022-08-24T07:14:39.187Z,23.50
2022-08-24T07:17:07.290Z,23.50
2022-08-24T07:19:37.785Z,23.60
2022-08-24T07:22:05.787Z,23.60
2022-08-24T07:24:33.779Z,23.70
2022-08-24T07:27:01.914Z,23.70
2022-08-24T07:29:48.545Z,23.80
2022-08-24T07:32:17.977Z,23.80
2022-08-24T07:34:47.323Z,23.80
2022-08-24T07:37:15.334Z,23.90
2022-08-24T07:39:43.807Z,23.90
2022-08-24T07:42:14.032Z,24.00
2022-08-24T07:44:44.067Z,24.00
2022-08-24T07:47:36.541Z,24.10
2022-08-24T07:50:01.754Z,24.20
2022-08-24T07:52:29.696Z,24.20
2022-08-24T07:54:57.932Z,24.30
2022-08-24T07:57:26.183Z,24.30
2022-08-24T07:59:56.058Z,24.40
2022-08-24T08:02:24.184Z,24.50
2022-08-24T08:04:57.494Z,24.50
2022-08-24T08:07:28.459Z,24.60
2022-08-24T08:09:56.403Z,24.60
2022-08-24T08:12:24.515Z,24.70
2022-08-24T08:14:52.495Z,24.80
2022-08-24T08:17:20.504Z,24.90
2022-08-24T08:19:48.487Z,24.90
2022-08-24T08:22:33.796Z,25.00
2022-08-24T08:25:03.166Z,25.10
2022-08-24T08:27:31.314Z,25.20
2022-08-24T08:29:59.388Z,25.30
2022-08-24T08:32:27.346Z,25.40
2022-08-24T08:35:00.073Z,25.50
2022-08-24T08:37:31.093Z,25.50
2022-08-24T08:39:59.609Z,25.70
2022-08-24T08:42:48.143Z,25.80
2022-08-24T08:45:40.437Z,25.90
2022-08-24T08:48:37.321Z,26.00
2022-08-24T08:51:38.156Z,26.20
2022-08-24T08:54:26.830Z,26.30
2022-08-24T08:57:17.368Z,26.50
2022-08-24T08:59:58.112Z,26.60
2022-08-24T09:02:46.743Z,26.70
2022-08-24T09:05:40.783Z,26.90
2022-08-24T09:08:18.645Z,26.90
2022-08-24T09:10:56.920Z,27.00
2022-08-24T09:13:54.266Z,27.20
2022-08-24T09:16:41.698Z,27.30
2022-08-24T09:19:35.287Z,27.40
2022-08-24T09:22:12.907Z,27.50
2022-08-24T09:25:07.302Z,27.60
2022-08-24T09:27:51.497Z,27.70
2022-08-24T09:30:23.479Z,27.90
2022-08-24T09:33:07.735Z,28.00
2022-08-24T09:35:52.524Z,28.10
2022-08-24T09:38:29.064Z,28.20
2022-08-24T09:41:24.675Z,28.40
2022-08-24T09:44:30.506Z,28.60
2022-08-24T09:47:43.571Z,28.80
2022-08-24T09:50:47.150Z,28.90
2022-08-24T09:53:55.715Z,29.00
2022-08-24T09:56:42.156Z,29.20
2022-08-24T09:59:30.140Z,29.30
2022-08-24T10:02:16.062Z,29.40
2022-08-24T10:05:02.953Z,29.40
2022-08-24T10:07:40.147Z,29.50
2022-08-24T10:10:21.726Z,29.50
2022-08-24T10:12:59.868Z,29.60
2022-08-24T10:15:32.198Z,29.70
2022-08-24T10:18:23.557Z,29.80
2022-08-24T10:21:10.257Z,29.90
2022-08-24T10:24:07.958Z,30.00
2022-08-24T10:27:02.916Z,30.10
2022-08-24T10:29:49.260Z,30.20
2022-08-24T10:32:32.546Z,30.30
2022-08-24T10:35:05.846Z,30.40
2022-08-24T10:38:23.496Z,30.60
2022-08-24T10:41:09.178Z,30.70
2022-08-24T10:43:59.074Z,30.90
2022-08-24T10:46:40.334Z,31.10
2022-08-24T10:49:33.181Z,31.30
2022-08-24T10:52:39.386Z,31.40
2022-08-24T10:55:16.234Z,31.60
2022-08-24T10:57:58.584Z,31.60
2022-08-24T11:00:29.461Z,31.80
2022-08-24T11:03:09.801Z,31.80
2022-08-24T11:05:44.026Z,31.80
2022-08-24T11:08:20.823Z,31.80
2022-08-24T11:11:06.763Z,31.80
2022-08-24T11:13:37.882Z,31.80
2022-08-24T11:16:07.552Z,31.90
2022-08-24T11:18:54.813Z,31.90
2022-08-24T11:21:48.686Z,32.10
2022-08-24T11:24:40.708Z,32.10
2022-08-24T11:27:19.603Z,32.10
2022-08-24T11:30:10.863Z,32.10
2022-08-24T11:32:43.302Z,32.10
2022-08-24T11:35:21.498Z,32.40
2022-08-24T11:37:52.007Z,32.70
2022-08-24T11:40:23.115Z,32.90
2022-08-24T11:43:27.367Z,33.20
2022-08-24T11:46:13.469Z,33.40
2022-08-24T11:48:52.052Z,33.70
2022-08-24T11:51:32.030Z,33.90
2022-08-24T11:54:06.275Z,34.20
2022-08-24T11:56:42.304Z,34.40
2022-08-24T11:59:18.944Z,34.50
2022-08-24T12:01:54.684Z,34.60
2022-08-24T12:04:41.643Z,34.80
2022-08-24T12:07:20.837Z,35.00
2022-08-24T12:10:03.785Z,35.00
2022-08-24T12:12:38.716Z,35.30
2022-08-24T12:15:12.464Z,35.70
2022-08-24T12:17:48.245Z,35.90
2022-08-24T12:20:27.398Z,36.10
2022-08-24T12:23:00.815Z,36.20
2022-08-24T12:25:49.460Z,36.50
2022-08-24T12:28:25.351Z,36.80
2022-08-24T12:30:55.523Z,37.00
2022-08-24T12:33:32.092Z,37.10
2022-08-24T12:36:05.703Z,37.10
2022-08-24T12:38:39.486Z,37.10
2022-08-24T12:41:18.974Z,37.10
2022-08-24T12:43:51.476Z,37.40
2022-08-24T12:46:23.455Z,37.40
2022-08-24T12:48:57.477Z,37.30
2022-08-24T12:51:30.099Z,37.30
2022-08-24T12:54:19.814Z,37.40
2022-08-24T12:57:18.328Z,37.40
2022-08-24T12:59:49.702Z,37.40
2022-08-24T13:02:44.053Z,37.30
2022-08-24T13:05:20.670Z,37.50
2022-08-24T13:07:51.558Z,37.80
2022-08-24T13:10:40.048Z,37.80
2022-08-24T13:13:21.883Z,38.10
2022-08-24T13:16:03.622Z,38.10
2022-08-24T13:19:13.509Z,38.30
2022-08-24T13:21:47.097Z,38.30
2022-08-24T13:24:43.803Z,38.30
2022-08-24T13:27:56.796Z,38.50
2022-08-24T13:30:38.278Z,38.60
2022-08-24T13:33:11.344Z,38.60
2022-08-24T13:36:02.646Z,38.90
2022-08-24T13:39:00.676Z,38.90
2022-08-24T13:42:10.700Z,38.50
2022-08-24T13:45:07.520Z,38.40
2022-08-24T13:48:00.845Z,38.10
2022-08-24T13:50:34.091Z,38.00
2022-08-24T13:53:31.395Z,37.90
2022-08-24T13:56:32.387Z,37.80
2022-08-24T13:59:09.898Z,37.80
2022-08-24T14:01:50.290Z,37.70
2022-08-24T14:04:35.778Z,37.70
2022-08-24T14:07:13.126Z,37.60
2022-08-24T14:09:56.467Z,37.70
2022-08-24T14:12:44.951Z,37.60
2022-08-24T14:15:24.141Z,37.50
2022-08-24T14:18:02.952Z,37.30
2022-08-24T14:20:58.632Z,37.30
2022-08-24T14:23:47.920Z,37.20
2022-08-24T14:26:55.224Z,37.10
2022-08-24T14:29:34.217Z,37.10
2022-08-24T14:32:28.198Z,37.00
2022-08-24T14:35:22.795Z,37.00
2022-08-24T14:38:02.628Z,37.00
2022-08-24T14:40:37.227Z,36.90
2022-08-24T14:43:30.128Z,36.70
2022-08-24T14:46:11.314Z,36.60
2022-08-24T14:48:49.136Z,36.40
2022-08-24T14:51:39.111Z,36.20
2022-08-24T14:54:16.822Z,36.10
2022-08-24T14:56:59.503Z,36.00
2022-08-24T14:59:41.000Z,36.00
2022-08-24T15:02:51.699Z,36.00
2022-08-24T15:05:25.608Z,36.00
2022-08-24T15:07:57.430Z,36.00
2022-08-24T15:10:29.236Z,36.00
2022-08-24T15:13:03.801Z,35.90
2022-08-24T15:15:36.315Z,35.80
2022-08-24T15:18:21.625Z,35.70
2022-08-24T15:21:01.483Z,35.50
2022-08-24T15:23:42.823Z,35.30
2022-08-24T15:26:25.319Z,35.10
2022-08-24T15:28:56.725Z,35.00
2022-08-24T15:31:29.217Z,34.80
2022-08-24T15:33:59.510Z,34.70
2022-08-24T15:36:30.139Z,34.60
2022-08-24T15:38:58.399Z,34.50
2022-08-24T15:41:31.119Z,34.40
2022-08-24T15:44:02.319Z,34.40
2022-08-24T15:46:34.894Z,34.30
2022-08-24T15:49:06.955Z,34.30
2022-08-24T15:51:51.766Z,34.20
2022-08-24T15:54:33.078Z,34.20
2022-08-24T15:57:03.924Z,34.10
2022-08-24T15:59:45.400Z,34.10
2022-08-24T16:02:26.276Z,34.10
2022-08-24T16:05:02.203Z,34.00
2022-08-24T16:07:54.648Z,34.00
2022-08-24T16:10:32.736Z,34.00
2022-08-24T16:13:08.766Z,34.00
2022-08-24T16:15:47.045Z,33.90
2022-08-24T16:18:16.429Z,33.90
2022-08-24T16:20:46.139Z,33.90
2022-08-24T16:23:23.886Z,33.80
2022-08-24T16:26:20.996Z,33.80
2022-08-24T16:28:50.407Z,33.70
2022-08-24T16:31:46.995Z,33.50
2022-08-24T16:34:22.838Z,33.40
2022-08-24T16:36:50.964Z,33.40
2022-08-24T16:39:18.933Z,33.30
2022-08-24T16:41:50.126Z,33.30
2022-08-24T16:44:18.461Z,33.30
2022-08-24T16:46:48.000Z,33.30
2022-08-24T16:49:16.299Z,33.30
2022-08-24T16:51:45.429Z,33.20
2022-08-24T16:54:13.855Z,33.20
2022-08-24T16:56:42.929Z,33.20
2022-08-24T16:59:19.518Z,33.20
2022-08-24T17:01:50.209Z,33.10
2022-08-24T17:04:18.583Z,33.10
2022-08-24T17:06:47.963Z,33.10
2022-08-24T17:09:16.084Z,33.00
2022-08-24T17:11:44.404Z,33.00
2022-08-24T17:14:14.954Z,33.00
2022-08-24T17:16:43.391Z,32.80
2022-08-24T17:19:14.899Z,32.80
2022-08-24T17:21:45.604Z,32.70
2022-08-24T17:24:13.979Z,32.70
2022-08-24T17:26:45.675Z,32.60
2022-08-24T17:29:19.510Z,32.50
2022-08-24T17:31:49.642Z,32.50
2022-08-24T17:34:19.357Z,32.50
2022-08-24T17:36:47.941Z,32.40
2022-08-24T17:39:17.487Z,32.30
2022-08-24T17:41:46.091Z,32.30
2022-08-24T17:44:20.955Z,32.30
2022-08-24T17:46:51.627Z,32.20
2022-08-24T17:49:20.164Z,32.20
2022-08-24T17:51:49.512Z,32.20
2022-08-24T17:54:17.940Z,32.20
2022-08-24T17:56:48.663Z,32.00
2022-08-24T17:59:24.622Z,32.00
2022-08-24T18:01:54.406Z,31.90
2022-08-24T18:04:25.636Z,31.90
2022-08-24T18:06:54.024Z,31.90
2022-08-24T18:09:28.828Z,31.80
2022-08-24T18:11:59.775Z,31.80
2022-08-24T18:14:30.375Z,31.70
2022-08-24T18:17:02.064Z,31.70
2022-08-24T18:19:30.066Z,31.60
2022-08-24T18:21:58.032Z,31.60
2022-08-24T18:24:26.562Z,31.50
2022-08-24T18:26:54.509Z,31.40
2022-08-24T18:29:22.923Z,31.20
2022-08-24T18:31:54.209Z,31.10
2022-08-24T18:34:22.907Z,31.00
2022-08-24T18:36:51.187Z,31.00
2022-08-24T18:39:19.765Z,30.80
2022-08-24T18:41:49.681Z,30.70
2022-08-24T18:44:19.972Z,30.60
2022-08-24T18:46:48.908Z,30.50
2022-08-24T18:49:19.404Z,30.40
2022-08-24T18:51:49.149Z,30.30
2022-08-24T18:54:20.192Z,30.30
2022-08-24T18:56:48.722Z,30.20
2022-08-24T18:59:19.595Z,30.10
2022-08-24T19:02:07.850Z,30.10
2022-08-24T19:04:45.108Z,30.00
2022-08-24T19:07:13.980Z,30.00
2022-08-24T19:09:42.107Z,29.90
2022-08-24T19:12:10.697Z,29.90
2022-08-24T19:14:42.340Z,29.80
2022-08-24T19:17:12.534Z,29.80
2022-08-24T19:19:43.011Z,29.80
2022-08-24T19:22:11.140Z,29.80
2022-08-24T19:24:39.679Z,29.80
2022-08-24T19:27:07.820Z,29.80
2022-08-24T19:32:27.409Z,29.90
2022-08-24T19:34:57.960Z,29.80
2022-08-24T19:37:27.000Z,29.70
2022-08-24T19:39:55.030Z,29.70
2022-08-24T19:42:25.501Z,29.60
2022-08-24T19:45:12.594Z,29.60
2022-08-24T19:47:40.702Z,29.60
2022-08-24T19:50:11.361Z,29.60
2022-08-24T19:52:40.636Z,29.60
2022-08-24T19:55:09.631Z,29.60
2022-08-24T19:57:43.475Z,29.60
2022-08-24T20:00:37.364Z,29.50
2022-08-24T20:03:06.294Z,29.50
2022-08-24T20:05:38.020Z,29.50
2022-08-24T20:08:06.164Z,29.40
2022-08-24T20:10:36.395Z,29.40
2022-08-24T20:13:04.763Z,29.40
2022-08-24T20:15:37.609Z,29.30
2022-08-24T20:18:08.953Z,29.30
2022-08-24T20:20:39.025Z,29.30
2022-08-24T20:23:07.169Z,29.20
2022-08-24T20:25:36.138Z,29.10
2022-08-24T20:30:57.984Z,29.10
2022-08-24T20:33:28.137Z,29.00
2022-08-24T20:36:00.086Z,29.00
2022-08-24T20:38:31.752Z,29.00
2022-08-24T20:41:03.595Z,29.00
2022-08-24T20:43:31.927Z,28.90
2022-08-24T20:46:00.247Z,28.80
2022-08-24T20:48:32.411Z,28.80
2022-08-24T20:51:02.493Z,28.80
2022-08-24T20:53:30.493Z,28.80
2022-08-24T20:56:06.050Z,28.70
2022-08-24T20:58:34.039Z,28.70
2022-08-24T21:01:10.037Z,28.60
2022-08-24T21:03:38.584Z,28.50
2022-08-24T21:06:12.411Z,28.40
2022-08-24T21:08:48.483Z,28.40
2022-08-24T21:11:22.603Z,28.30
2022-08-24T21:13:50.536Z,28.20
2022-08-24T21:16:18.714Z,28.10
2022-08-24T21:18:47.009Z,28.10
2022-08-24T21:21:16.535Z,28.00
2022-08-24T21:23:44.515Z,27.90
2022-08-24T21:26:16.403Z,27.90
2022-08-24T21:28:45.209Z,27.90
2022-08-24T21:31:13.384Z,27.90
2022-08-24T21:33:59.074Z,27.80
2022-08-24T21:36:31.601Z,27.80
2022-08-24T21:38:59.887Z,27.70
2022-08-24T21:41:29.402Z,27.60
2022-08-24T21:43:58.187Z,27.60
2022-08-24T21:46:30.809Z,27.60
2022-08-24T21:48:59.049Z,27.60
2022-08-24T21:51:27.254Z,27.60
2022-08-24T21:53:59.479Z,27.60
2022-08-24T21:56:31.509Z,27.60
2022-08-24T21:59:00.231Z,27.60
2022-08-24T22:01:28.907Z,27.50
2022-08-24T22:03:58.134Z,27.50
2022-08-24T22:06:30.968Z,27.50
2022-08-24T22:09:01.602Z,27.40
2022-08-24T22:11:30.355Z,27.30
2022-08-24T22:13:58.604Z,27.30
2022-08-24T22:16:27.156Z,27.30
2022-08-24T22:18:55.562Z,27.30
2022-08-24T22:21:26.046Z,27.20
2022-08-24T22:23:55.319Z,27.20
2022-08-24T22:26:27.996Z,27.10
2022-08-24T22:28:56.831Z,27.10
2022-08-24T22:31:27.749Z,27.10
2022-08-24T22:33:56.588Z,27.10
2022-08-24T22:36:25.664Z,27.00
2022-08-24T22:38:56.201Z,27.00
2022-08-24T22:41:24.792Z,27.00
2022-08-24T22:44:13.351Z,26.90
2022-08-24T22:46:41.585Z,26.90
2022-08-24T22:49:10.641Z,26.90
2022-08-24T22:51:39.297Z,26.90
2022-08-24T22:54:08.053Z,26.90
2022-08-24T22:56:38.371Z,26.90
2022-08-24T22:59:09.043Z,26.90
2022-08-24T23:01:41.384Z,26.90
2022-08-24T23:04:14.469Z,26.90
2022-08-24T23:06:42.551Z,26.90
2022-08-24T23:09:11.071Z,26.80
2022-08-24T23:11:39.628Z,26.80
2022-08-24T23:14:10.250Z,26.70
2022-08-24T23:16:40.533Z,26.70
2022-08-24T23:19:26.795Z,26.70
2022-08-24T23:21:54.824Z,26.70
2022-08-24T23:24:23.012Z,26.70
2022-08-24T23:26:51.083Z,26.70
2022-08-24T23:29:20.591Z,26.60
2022-08-24T23:31:48.896Z,26.60
2022-08-24T23:34:17.716Z,26.60
2022-08-24T23:36:46.075Z,26.60
2022-08-24T23:39:14.823Z,26.60
2022-08-24T23:41:46.285Z,26.60
2022-08-24T23:44:17.332Z,26.60
2022-08-24T23:46:46.635Z,26.50
2022-08-24T23:49:16.122Z,26.50
2022-08-24T23:51:44.462Z,26.60
2022-08-24T23:54:13.419Z,26.50
2022-08-24T23:56:43.846Z,26.50
2022-08-24T23:59:13.807Z,26.50
